Time,TemperatureF,DewpointF,PressureIn,WindDirection,WindDirectionDegrees,WindSpeedMPH,WindSpeedGustMPH,Humidity,HourlyPrecipIn,Conditions,Clouds,dailyrainin,SoftwareType,DateUTC
2013-02-06 00:00:00,52.6,39.6,29.95,ENE,67,0.4,0.0,61,0.00,,,0.00,tws,2013-02-06 07:00:00,
2013-02-06 00:10:00,52.1,39.3,29.94,NE,45,0.2,1.2,61,0.00,,,0.00,tws,2013-02-06 07:10:00,
2013-02-06 00:20:00,51.7,39.4,29.94,NW,315,0.2,1.2,62,0.00,,,0.00,tws,2013-02-06 07:20:00,
2013-02-06 00:30:00,51.3,39.2,29.95,North,0,1.3,1.7,63,0.00,,,0.00,tws,2013-02-06 07:30:00,
2013-02-06 00:40:00,50.9,39.1,29.94,NW,315,1.0,2.4,63,0.00,,,0.00,tws,2013-02-06 07:40:00,
2013-02-06 00:50:00,50.6,39.1,29.94,NW,315,0.2,1.3,64,0.00,,,0.00,tws,2013-02-06 07:50:00,
2013-02-06 01:00:00,50.5,39.2,29.94,NW,315,0.5,2.3,64,0.00,,,0.00,tws,2013-02-06 08:00:00,
2013-02-06 01:10:00,50.4,39.3,29.94,NW,315,3.0,4.2,65,0.00,,,0.00,tws,2013-02-06 08:10:00,
2013-02-06 01:20:00,50.3,39.3,29.94,NW,315,3.3,3.7,65,0.00,,,0.00,tws,2013-02-06 08:20:00,
2013-02-06 01:30:00,50.2,39.2,29.93,NW,315,3.0,4.1,65,0.00,,,0.00,tws,2013-02-06 08:30:00,
2013-02-06 01:40:00,50.1,39.2,29.94,WNW,292,1.6,1.9,65,0.00,,,0.00,tws,2013-02-06 08:40:00,
2013-02-06 01:50:00,49.9,39.0,29.94,NW,315,1.8,2.8,66,0.00,,,0.00,tws,2013-02-06 08:50:00,
2013-02-06 02:00:00,49.6,38.9,29.94,West,270,1.9,2.8,66,0.00,,,0.00,tws,2013-02-06 09:00:00,
2013-02-06 02:10:00,49.3,38.8,29.93,WSW,247,1.6,2.3,66,0.00,,,0.00,tws,2013-02-06 09:10:00,
2013-02-06 02:20:00,49.1,38.9,29.94,West,270,1.7,2.5,67,0.00,,,0.00,tws,2013-02-06 09:20:00,
2013-02-06 02:30:00,48.9,38.8,29.94,West,270,1.1,1.5,68,0.00,,,0.00,tws,2013-02-06 09:30:00,
2013-02-06 02:40:00,48.7,38.9,29.93,WSW,247,1.0,1.7,68,0.00,,,0.00,tws,2013-02-06 09:40:00,
2013-02-06 02:50:00,48.4,38.7,29.93,North,0,2.1,2.9,68,0.00,,,0.00,tws,2013-02-06 09:50:00,
2013-02-06 03:00:00,48.1,38.6,29.93,NW,315,3.0,4.3,69,0.00,,,0.00,tws,2013-02-06 10:00:00,
2013-02-06 03:10:00,47.9,38.7,29.93,NW,315,3.5,4.2,70,0.00,,,0.00,tws,2013-02-06 10:10:00,
2013-02-06 03:20:00,47.9,38.8,29.93,NW,315,3.5,3.7,70,0.00,,,0.00,tws,2013-02-06 10:20:00,
2013-02-06 03:30:00,47.9,38.9,29.93,NW,315,3.2,3.6,70,0.00,,,0.00,tws,2013-02-06 10:30:00,
2013-02-06 03:40:00,47.9,38.9,29.93,WNW,292,2.5,3.3,70,0.00,,,0.00,tws,2013-02-06 10:40:00,
2013-02-06 03:50:00,47.8,38.9,29.93,NW,315,2.8,3.9,71,0.00,,,0.00,tws,2013-02-06 10:50:00,
2013-02-06 04:00:00,47.7,39.0,29.93,North,0,2.4,3.8,71,0.00,,,0.00,tws,2013-02-06 11:00:00,
2013-02-06 04:10:00,47.6,38.9,29.92,ENE,67,0.8,1.6,71,0.00,,,0.00,tws,2013-02-06 11:10:00,
2013-02-06 04:20:00,47.4,38.8,29.93,North,0,1.9,2.4,71,0.00,,,0.00,tws,2013-02-06 11:20:00,
2013-02-06 04:30:00,47.1,38.5,29.93,NW,315,3.0,3.9,71,0.00,,,0.00,tws,2013-02-06 11:30:00,
2013-02-06 04:40:00,46.9,38.6,29.93,NW,315,3.4,4.0,72,0.00,,,0.00,tws,2013-02-06 11:40:00,
2013-02-06 04:50:00,46.9,38.7,29.94,SW,225,1.1,3.5,72,0.00,,,0.00,tws,2013-02-06 11:50:00,
2013-02-06 05:00:00,46.7,38.5,29.94,WNW,292,1.5,2.2,72,0.00,,,0.00,tws,2013-02-06 12:00:00,
2013-02-06 05:10:00,46.5,38.4,29.93,NW,315,1.7,2.5,73,0.00,,,0.00,tws,2013-02-06 12:10:00,
2013-02-06 05:20:00,46.3,38.3,29.94,West,270,1.6,2.0,73,0.00,,,0.00,tws,2013-02-06 12:20:00,
2013-02-06 05:30:00,46.2,38.3,29.93,WSW,247,1.9,2.3,73,0.00,,,0.00,tws,2013-02-06 12:30:00,
2013-02-06 05:40:00,46.1,38.3,29.93,NW,315,1.6,2.9,74,0.00,,,0.00,tws,2013-02-06 12:40:00,
2013-02-06 05:50:00,46.1,38.5,29.93,NW,315,1.2,1.8,74,0.00,,,0.00,tws,2013-02-06 12:50:00,
2013-02-06 06:00:00,46.0,38.5,29.93,West,270,1.1,1.7,74,0.00,,,0.00,tws,2013-02-06 13:00:00,
2013-02-06 06:10:00,45.9,38.6,29.93,NW,315,1.0,1.7,75,0.00,,,0.00,tws,2013-02-06 13:10:00,
2013-02-06 06:20:00,45.8,38.6,29.93,NW,315,1.6,2.2,75,0.00,,,0.00,tws,2013-02-06 13:20:00,
2013-02-06 06:30:00,45.7,38.6,29.93,NW,315,2.1,2.8,75,0.00,,,0.00,tws,2013-02-06 13:30:00,
2013-02-06 06:40:00,45.7,38.7,29.93,NNW,337,1.7,2.4,76,0.00,,,0.00,tws,2013-02-06 13:40:00,
2013-02-06 06:50:00,45.7,38.8,29.93,NNW,337,2.4,3.0,76,0.00,,,0.00,tws,2013-02-06 13:50:00,
2013-02-06 07:00:00,45.8,38.9,29.94,NW,315,2.2,3.0,76,0.00,,,0.00,tws,2013-02-06 14:00:00,
2013-02-06 07:10:00,45.9,39.0,29.94,NW,315,2.8,3.5,76,0.00,,,0.00,tws,2013-02-06 14:10:00,
2013-02-06 07:20:00,45.9,39.2,29.94,NW,315,2.6,3.1,77,0.00,,,0.00,tws,2013-02-06 14:20:00,
2013-02-06 07:30:00,46.0,39.3,29.94,NW,315,2.7,3.5,77,0.00,,,0.00,tws,2013-02-06 14:30:00,
2013-02-06 07:40:00,46.1,39.4,29.95,NW,315,1.6,2.2,77,0.00,,,0.00,tws,2013-02-06 14:40:00,
2013-02-06 07:50:00,46.3,39.6,29.95,NNW,337,0.8,1.9,77,0.00,,,0.00,tws,2013-02-06 14:50:00,
2013-02-06 08:00:00,46.7,40.0,29.96,SW,225,0.6,1.1,77,0.00,,,0.00,tws,2013-02-06 15:00:00,
2013-02-06 08:10:00,47.2,40.6,29.96,North,0,0.2,1.1,77,0.00,,,0.00,tws,2013-02-06 15:10:00,
2013-02-06 08:20:00,47.9,41.2,29.97,SW,225,0.0,0.0,77,0.00,,,0.00,tws,2013-02-06 15:20:00,
2013-02-06 08:30:00,48.8,41.7,29.96,NW,315,0.0,0.0,76,0.00,,,0.00,tws,2013-02-06 15:30:00,
2013-02-06 08:40:00,49.5,42.2,29.96,NW,315,0.0,0.0,75,0.00,,,0.00,tws,2013-02-06 15:40:00,
2013-02-06 08:50:00,50.1,42.6,29.96,NW,315,0.0,0.0,75,0.00,,,0.00,tws,2013-02-06 15:50:00,
2013-02-06 09:00:00,51.0,43.3,29.96,NW,315,0.5,1.4,74,0.00,,,0.00,tws,2013-02-06 16:00:00,
2013-02-06 09:10:00,52.2,44.2,29.96,NW,315,0.3,0.7,73,0.00,,,0.00,tws,2013-02-06 16:10:00,
2013-02-06 09:20:00,54.1,45.3,29.96,NE,45,0.1,1.0,71,0.00,,,0.00,tws,2013-02-06 16:20:00,
2013-02-06 09:30:00,56.0,45.8,29.96,East,90,0.6,1.5,68,0.00,,,0.00,tws,2013-02-06 16:30:00,
2013-02-06 09:40:00,57.1,45.8,29.97,NE,45,1.3,2.7,65,0.00,,,0.00,tws,2013-02-06 16:40:00,
2013-02-06 09:50:00,58.2,45.8,29.97,NNE,22,1.3,3.8,63,0.00,,,0.00,tws,2013-02-06 16:50:00,
2013-02-06 10:00:00,58.8,45.4,29.96,ENE,67,2.2,2.9,60,0.00,,,0.00,tws,2013-02-06 17:00:00,
2013-02-06 10:10:00,58.5,44.6,29.97,East,90,1.7,2.7,59,0.00,,,0.00,tws,2013-02-06 17:10:00,
2013-02-06 10:20:00,58.7,44.7,29.97,East,90,2.1,2.6,59,0.00,,,0.00,tws,2013-02-06 17:20:00,
2013-02-06 10:30:00,59.8,45.4,29.97,South,180,2.3,3.5,58,0.00,,,0.00,tws,2013-02-06 17:30:00,
2013-02-06 10:40:00,60.8,45.8,29.98,SE,135,2.3,3.2,57,0.00,,,0.00,tws,2013-02-06 17:40:00,
2013-02-06 10:50:00,62.0,46.0,29.98,ESE,112,4.5,7.0,55,0.00,,,0.00,tws,2013-02-06 17:50:00,
2013-02-06 11:00:00,63.3,45.9,29.98,SE,135,5.6,8.0,52,0.00,,,0.00,tws,2013-02-06 18:00:00,
2013-02-06 11:10:00,64.1,45.7,29.97,East,90,5.4,7.5,50,0.00,,,0.00,tws,2013-02-06 18:10:00,
2013-02-06 11:20:00,64.7,45.3,29.97,NE,45,5.3,6.1,48,0.00,,,0.00,tws,2013-02-06 18:20:00,
2013-02-06 11:30:00,64.7,44.7,29.96,ESE,112,5.3,7.1,47,0.00,,,0.00,tws,2013-02-06 18:30:00,
2013-02-06 11:40:00,64.8,44.7,29.96,SSE,157,4.6,6.0,47,0.00,,,0.00,tws,2013-02-06 18:40:00,
2013-02-06 11:50:00,65.3,44.9,29.96,ESE,112,4.5,7.5,47,0.00,,,0.00,tws,2013-02-06 18:50:00,
2013-02-06 12:00:00,65.8,44.4,29.96,East,90,5.1,7.0,45,0.00,,,0.00,tws,2013-02-06 19:00:00,
2013-02-06 12:10:00,66.1,44.1,29.96,NE,45,5.4,6.5,44,0.00,,,0.00,tws,2013-02-06 19:10:00,
2013-02-06 12:20:00,66.3,44.0,29.95,ESE,112,5.9,8.2,44,0.00,,,0.00,tws,2013-02-06 19:20:00,
2013-02-06 12:30:00,66.2,43.7,29.95,SSE,157,4.6,6.3,43,0.00,,,0.00,tws,2013-02-06 19:30:00,
2013-02-06 12:40:00,66.0,43.7,29.95,ENE,67,4.3,6.7,43,0.00,,,0.00,tws,2013-02-06 19:40:00,
2013-02-06 12:50:00,66.9,44.1,29.94,ENE,67,4.9,7.1,43,0.00,,,0.00,tws,2013-02-06 19:50:00,
2013-02-06 13:00:00,67.1,43.3,29.94,SE,135,4.0,6.5,41,0.00,,,0.00,tws,2013-02-06 20:00:00,
2013-02-06 13:10:00,67.0,42.8,29.94,SE,135,3.7,4.4,41,0.00,,,0.00,tws,2013-02-06 20:10:00,
2013-02-06 13:20:00,67.6,43.5,29.93,SE,135,4.4,6.0,41,0.00,,,0.00,tws,2013-02-06 20:20:00,
2013-02-06 13:30:00,67.6,43.0,29.93,SSE,157,5.0,6.6,40,0.00,,,0.00,tws,2013-02-06 20:30:00,
2013-02-06 13:40:00,67.6,42.5,29.93,SSE,157,5.5,7.3,39,0.00,,,0.00,tws,2013-02-06 20:40:00,
2013-02-06 13:50:00,67.2,42.5,29.93,South,180,3.9,6.0,40,0.00,,,0.00,tws,2013-02-06 20:50:00,
2013-02-06 14:00:00,67.8,43.0,29.93,SSW,202,3.9,6.8,40,0.00,,,0.00,tws,2013-02-06 21:00:00,
2013-02-06 14:10:00,69.0,42.4,29.92,SE,135,6.8,9.0,37,0.00,,,0.00,tws,2013-02-06 21:10:00,
2013-02-06 14:20:00,69.4,41.8,29.91,SE,135,6.0,9.9,36,0.00,,,0.00,tws,2013-02-06 21:20:00,
2013-02-06 14:30:00,69.0,41.6,29.92,South,180,6.8,10.6,36,0.00,,,0.00,tws,2013-02-06 21:30:00,
2013-02-06 14:40:00,69.0,41.2,29.92,South,180,8.6,13.9,36,0.00,,,0.00,tws,2013-02-06 21:40:00,
2013-02-06 14:50:00,68.7,40.2,29.92,East,90,6.4,10.3,34,0.00,,,0.00,tws,2013-02-06 21:50:00,
2013-02-06 15:00:00,69.0,39.8,29.93,ESE,112,6.7,9.2,34,0.00,,,0.00,tws,2013-02-06 22:00:00,
2013-02-06 15:10:00,69.8,39.3,29.93,SE,135,7.0,8.5,32,0.00,,,0.00,tws,2013-02-06 22:10:00,
2013-02-06 15:20:00,70.1,39.7,29.93,South,180,6.2,9.4,32,0.00,,,0.00,tws,2013-02-06 22:20:00,
2013-02-06 15:30:00,70.1,40.2,29.93,SE,135,7.0,10.3,33,0.00,,,0.00,tws,2013-02-06 22:30:00,
2013-02-06 15:40:00,69.6,40.5,29.94,SE,135,8.4,10.4,34,0.00,,,0.00,tws,2013-02-06 22:40:00,
2013-02-06 15:50:00,68.8,40.5,29.93,SSW,202,7.7,10.2,35,0.00,,,0.00,tws,2013-02-06 22:50:00,
2013-02-06 16:00:00,68.6,41.0,29.93,South,180,8.0,10.5,36,0.00,,,0.00,tws,2013-02-06 23:00:00,
2013-02-06 16:10:00,69.3,41.8,29.94,SW,225,5.2,8.9,36,0.00,,,0.00,tws,2013-02-06 23:10:00,
2013-02-06 16:20:00,70.1,41.9,29.94,WSW,247,5.2,10.0,35,0.00,,,0.00,tws,2013-02-06 23:20:00,
2013-02-06 16:30:00,70.0,40.7,29.94,SSW,202,6.7,10.5,34,0.00,,,0.00,tws,2013-02-06 23:30:00,
2013-02-06 16:40:00,69.5,40.4,29.94,SSW,202,7.3,9.8,34,0.00,,,0.00,tws,2013-02-06 23:40:00,
2013-02-06 16:50:00,68.8,39.9,29.94,SW,225,6.4,8.1,34,0.00,,,0.00,tws,2013-02-06 23:50:00,
2013-02-06 17:00:00,68.2,39.9,29.94,South,180,5.2,7.2,35,0.00,,,0.00,tws,2013-02-07 00:00:00,
2013-02-06 17:10:00,68.1,40.1,29.95,WSW,247,4.8,6.2,35,0.00,,,0.00,tws,2013-02-07 00:10:00,
2013-02-06 17:20:00,68.2,39.7,29.95,SW,225,5.6,8.1,34,0.00,,,0.00,tws,2013-02-07 00:20:00,
2013-02-06 17:30:00,67.5,38.6,29.95,SE,135,6.4,8.2,34,0.00,,,0.00,tws,2013-02-07 00:30:00,
2013-02-06 17:40:00,66.3,37.4,29.96,South,180,5.7,7.4,34,0.00,,,0.00,tws,2013-02-07 00:40:00,
2013-02-06 17:50:00,65.4,36.8,29.96,SW,225,5.9,8.0,34,0.00,,,0.00,tws,2013-02-07 00:50:00,
2013-02-06 18:00:00,64.6,36.6,29.96,SW,225,6.0,8.4,35,0.00,,,0.00,tws,2013-02-07 01:00:00,
2013-02-06 18:10:00,63.9,37.0,29.96,South,180,4.6,7.4,36,0.00,,,0.00,tws,2013-02-07 01:10:00,
2013-02-06 18:20:00,63.3,37.4,29.96,SW,225,4.7,5.4,37,0.00,,,0.00,tws,2013-02-07 01:20:00,
2013-02-06 18:30:00,62.6,37.5,29.97,SW,225,4.0,5.0,38,0.00,,,0.00,tws,2013-02-07 01:30:00,
2013-02-06 18:40:00,62.0,37.6,29.97,SW,225,3.4,3.8,39,0.00,,,0.00,tws,2013-02-07 01:40:00,
2013-02-06 18:50:00,61.4,37.7,29.98,West,270,3.2,4.1,40,0.00,,,0.00,tws,2013-02-07 01:50:00,
2013-02-06 19:00:00,61.0,37.5,29.98,South,180,3.0,3.6,41,0.00,,,0.00,tws,2013-02-07 02:00:00,
2013-02-06 19:10:00,60.5,37.5,29.99,SW,225,2.9,3.7,42,0.00,,,0.00,tws,2013-02-07 02:10:00,
2013-02-06 19:20:00,60.1,37.3,29.98,SW,225,3.0,4.0,42,0.00,,,0.00,tws,2013-02-07 02:20:00,
2013-02-06 19:30:00,59.7,37.7,30.00,West,270,1.6,3.1,43,0.00,,,0.00,tws,2013-02-07 02:30:00,
2013-02-06 19:40:00,59.1,37.7,30.00,NW,315,1.8,2.2,44,0.00,,,0.00,tws,2013-02-07 02:40:00,
2013-02-06 19:50:00,58.4,37.5,30.00,NW,315,2.2,2.8,45,0.00,,,0.00,tws,2013-02-07 02:50:00,
2013-02-06 20:00:00,57.7,37.5,30.00,NW,315,3.1,3.7,46,0.00,,,0.00,tws,2013-02-07 03:00:00,
2013-02-06 20:10:00,57.0,37.5,30.00,NW,315,3.5,5.4,47,0.00,,,0.00,tws,2013-02-07 03:10:00,
2013-02-06 20:20:00,56.5,37.5,30.00,North,0,4.0,4.9,48,0.00,,,0.00,tws,2013-02-07 03:20:00,
2013-02-06 20:30:00,56.3,37.8,30.00,NW,315,4.5,5.5,49,0.00,,,0.00,tws,2013-02-07 03:30:00,
2013-02-06 20:40:00,56.1,38.0,30.00,NW,315,5.0,6.0,50,0.00,,,0.00,tws,2013-02-07 03:40:00,
2013-02-06 20:50:00,55.9,38.0,30.01,NW,315,3.9,4.6,50,0.00,,,0.00,tws,2013-02-07 03:50:00,
2013-02-06 21:00:00,55.7,37.7,30.01,WNW,292,4.4,4.9,50,0.00,,,0.00,tws,2013-02-07 04:00:00,
2013-02-06 21:10:00,55.5,37.8,30.01,NW,315,4.0,4.6,50,0.00,,,0.00,tws,2013-02-07 04:10:00,
2013-02-06 21:20:00,55.3,38.1,30.02,WNW,292,4.2,5.2,52,0.00,,,0.00,tws,2013-02-07 04:20:00,
2013-02-06 21:30:00,55.1,38.3,30.02,NNW,337,4.2,4.9,52,0.00,,,0.00,tws,2013-02-07 04:30:00,
2013-02-06 21:40:00,54.9,38.4,30.02,NW,315,3.6,4.1,53,0.00,,,0.00,tws,2013-02-07 04:40:00,
2013-02-06 21:50:00,54.5,38.7,30.02,NW,315,3.6,4.7,54,0.00,,,0.00,tws,2013-02-07 04:50:00,
2013-02-06 22:00:00,54.1,38.7,30.02,SW,225,2.4,3.0,55,0.00,,,0.00,tws,2013-02-07 05:00:00,
2013-02-06 22:10:00,53.7,38.6,30.03,West,270,3.5,4.7,56,0.00,,,0.00,tws,2013-02-07 05:10:00,
2013-02-06 22:20:00,53.6,38.7,30.03,NW,315,4.5,5.6,56,0.00,,,0.00,tws,2013-02-07 05:20:00,
2013-02-06 22:30:00,53.7,39.2,30.03,West,270,3.6,4.5,57,0.00,,,0.00,tws,2013-02-07 05:30:00,
2013-02-06 22:40:00,53.7,39.2,30.03,WSW,247,3.5,4.2,57,0.00,,,0.00,tws,2013-02-07 05:40:00,
2013-02-06 22:50:00,53.7,39.3,30.03,NW,315,3.3,3.9,57,0.00,,,0.00,tws,2013-02-07 05:50:00,
2013-02-06 23:00:00,53.5,39.3,30.04,NW,315,2.8,3.4,58,0.00,,,0.00,tws,2013-02-07 06:00:00,
2013-02-06 23:10:00,53.2,39.2,30.04,NW,315,1.8,2.8,58,0.00,,,0.00,tws,2013-02-07 06:10:00,
2013-02-06 23:20:00,52.7,39.0,30.04,NNW,337,3.2,4.6,59,0.00,,,0.00,tws,2013-02-07 06:20:00,
2013-02-06 23:30:00,52.3,39.1,30.04,NW,315,3.4,3.8,60,0.00,,,0.00,tws,2013-02-07 06:30:00,
2013-02-06 23:40:00,52.1,39.1,30.05,SW,225,3.6,4.2,60,0.00,,,0.00,tws,2013-02-07 06:40:00,
2013-02-06 23:50:00,51.9,38.9,30.05,WNW,292,2.3,3.7,60,0.00,,,0.00,tws,2013-02-07 06:50:00,